sensor_id;sensor_type;location;lat;lon;timestamp;temperature;humidity
32650;DHT22;19055;51.064;3.712;2022-09-13T00:00:43;22.90;71.60
32650;DHT22;19055;51.064;3.712;2022-09-13T00:03:11;22.80;71.90
32650;DHT22;19055;51.064;3.712;2022-09-13T00:05:38;22.90;72.10
32650;DHT22;19055;51.064;3.712;2022-09-13T00:08:05;22.90;71.90
32650;DHT22;19055;51.064;3.712;2022-09-13T00:10:33;22.80;71.80
32650;DHT22;19055;51.064;3.712;2022-09-13T00:12:59;22.80;72.90
32650;DHT22;19055;51.064;3.712;2022-09-13T00:15:26;22.80;72.60
32650;DHT22;19055;51.064;3.712;2022-09-13T00:17:52;22.70;72.90
32650;DHT22;19055;51.064;3.712;2022-09-13T00:20:17;22.60;74.20
32650;DHT22;19055;51.064;3.712;2022-09-13T00:22:43;22.50;73.90
32650;DHT22;19055;51.064;3.712;2022-09-13T00:25:09;22.50;74.30
32650;DHT22;19055;51.064;3.712;2022-09-13T00:27:35;22.50;74.50
32650;DHT22;19055;51.064;3.712;2022-09-13T00:30:03;22.50;74.80
32650;DHT22;19055;51.064;3.712;2022-09-13T00:32:30;22.50;74.80
32650;DHT22;19055;51.064;3.712;2022-09-13T00:34:56;22.60;74.60
32650;DHT22;19055;51.064;3.712;2022-09-13T00:37:21;22.50;74.60
32650;DHT22;19055;51.064;3.712;2022-09-13T00:39:47;22.50;74.60
32650;DHT22;19055;51.064;3.712;2022-09-13T00:42:13;22.50;74.70
32650;DHT22;19055;51.064;3.712;2022-09-13T00:45:02;22.50;74.70
32650;DHT22;19055;51.064;3.712;2022-09-13T00:47:45;22.50;74.70
32650;DHT22;19055;51.064;3.712;2022-09-13T00:53:24;22.50;74.70
32650;DHT22;19055;51.064;3.712;2022-09-13T00:55:56;22.50;74.70
32650;DHT22;19055;51.064;3.712;2022-09-13T00:58:36;22.50;74.90
32650;DHT22;19055;51.064;3.712;2022-09-13T01:01:06;22.40;75.70
32650;DHT22;19055;51.064;3.712;2022-09-13T01:03:34;22.40;76.20
32650;DHT22;19055;51.064;3.712;2022-09-13T01:06:09;22.40;76.70
32650;DHT22;19055;51.064;3.712;2022-09-13T01:08:37;22.30;77.50
32650;DHT22;19055;51.064;3.712;2022-09-13T01:11:05;22.20;77.80
32650;DHT22;19055;51.064;3.712;2022-09-13T01:13:38;22.20;77.90
32650;DHT22;19055;51.064;3.712;2022-09-13T01:16:04;22.20;78.20
32650;DHT22;19055;51.064;3.712;2022-09-13T01:18:30;22.10;78.50
32650;DHT22;19055;51.064;3.712;2022-09-13T01:30:11;22.00;80.10
32650;DHT22;19055;51.064;3.712;2022-09-13T01:37:53;21.80;81.80
32650;DHT22;19055;51.064;3.712;2022-09-13T01:40:33;21.80;81.90
32650;DHT22;19055;51.064;3.712;2022-09-13T01:51:05;21.70;82.40
32650;DHT22;19055;51.064;3.712;2022-09-13T01:59:04;21.70;82.40
32650;DHT22;19055;51.064;3.712;2022-09-13T02:01:37;21.70;82.90
32650;DHT22;19055;51.064;3.712;2022-09-13T02:04:17;21.70;83.00
32650;DHT22;19055;51.064;3.712;2022-09-13T02:06:52;21.70;83.40
32650;DHT22;19055;51.064;3.712;2022-09-13T02:09:24;21.70;83.60
32650;DHT22;19055;51.064;3.712;2022-09-13T02:11:57;21.70;83.70
32650;DHT22;19055;51.064;3.712;2022-09-13T02:14:34;21.70;83.90
32650;DHT22;19055;51.064;3.712;2022-09-13T02:17:14;21.70;83.80
32650;DHT22;19055;51.064;3.712;2022-09-13T02:19:57;21.70;83.80
32650;DHT22;19055;51.064;3.712;2022-09-13T02:22:26;21.80;83.50
32650;DHT22;19055;51.064;3.712;2022-09-13T02:24:57;21.80;83.40
32650;DHT22;19055;51.064;3.712;2022-09-13T02:27:27;21.90;83.50
32650;DHT22;19055;51.064;3.712;2022-09-13T02:29:59;22.00;83.00
32650;DHT22;19055;51.064;3.712;2022-09-13T02:35:34;22.00;82.90
32650;DHT22;19055;51.064;3.712;2022-09-13T02:38:04;22.00;82.40
32650;DHT22;19055;51.064;3.712;2022-09-13T02:40:38;21.90;82.70
32650;DHT22;19055;51.064;3.712;2022-09-13T02:43:09;21.80;83.00
32650;DHT22;19055;51.064;3.712;2022-09-13T02:45:48;21.70;83.20
32650;DHT22;19055;51.064;3.712;2022-09-13T02:51:28;21.70;83.10
32650;DHT22;19055;51.064;3.712;2022-09-13T02:54:14;21.70;83.00
32650;DHT22;19055;51.064;3.712;2022-09-13T02:56:50;21.70;82.90
32650;DHT22;19055;51.064;3.712;2022-09-13T02:59:20;21.70;83.20
32650;DHT22;19055;51.064;3.712;2022-09-13T03:04:18;21.60;84.50
32650;DHT22;19055;51.064;3.712;2022-09-13T03:06:44;21.60;83.70
32650;DHT22;19055;51.064;3.712;2022-09-13T03:09:10;21.60;83.80
32650;DHT22;19055;51.064;3.712;2022-09-13T03:14:36;21.60;84.10
32650;DHT22;19055;51.064;3.712;2022-09-13T03:20:20;21.50;84.40
32650;DHT22;19055;51.064;3.712;2022-09-13T03:23:09;21.50;84.20
32650;DHT22;19055;51.064;3.712;2022-09-13T03:30:48;21.50;84.80
32650;DHT22;19055;51.064;3.712;2022-09-13T03:33:27;21.50;85.20
32650;DHT22;19055;51.064;3.712;2022-09-13T03:36:00;21.50;85.70
32650;DHT22;19055;51.064;3.712;2022-09-13T03:38:38;21.50;85.90
32650;DHT22;19055;51.064;3.712;2022-09-13T03:41:09;21.50;86.20
32650;DHT22;19055;51.064;3.712;2022-09-13T03:46:12;21.40;86.60
32650;DHT22;19055;51.064;3.712;2022-09-13T03:48:40;21.40;86.80
32650;DHT22;19055;51.064;3.712;2022-09-13T03:51:07;21.40;86.80
32650;DHT22;19055;51.064;3.712;2022-09-13T03:53:41;21.40;86.90
32650;DHT22;19055;51.064;3.712;2022-09-13T03:56:16;21.40;87.40
32650;DHT22;19055;51.064;3.712;2022-09-13T03:58:42;21.40;88.10
32650;DHT22;19055;51.064;3.712;2022-09-13T04:01:08;21.30;88.70
32650;DHT22;19055;51.064;3.712;2022-09-13T04:03:36;21.30;89.10
32650;DHT22;19055;51.064;3.712;2022-09-13T04:06:02;21.30;89.50
32650;DHT22;19055;51.064;3.712;2022-09-13T04:08:28;21.20;89.60
32650;DHT22;19055;51.064;3.712;2022-09-13T04:10:54;21.30;89.80
32650;DHT22;19055;51.064;3.712;2022-09-13T04:13:20;21.20;89.90
32650;DHT22;19055;51.064;3.712;2022-09-13T04:15:47;21.20;89.90
32650;DHT22;19055;51.064;3.712;2022-09-13T04:18:15;21.20;90.00
32650;DHT22;19055;51.064;3.712;2022-09-13T04:20:41;21.20;90.00
32650;DHT22;19055;51.064;3.712;2022-09-13T04:23:07;21.20;90.00
32650;DHT22;19055;51.064;3.712;2022-09-13T04:25:32;21.20;90.10
32650;DHT22;19055;51.064;3.712;2022-09-13T04:27:58;21.20;90.20
32650;DHT22;19055;51.064;3.712;2022-09-13T04:30:25;21.30;90.20
32650;DHT22;19055;51.064;3.712;2022-09-13T04:32:52;21.30;90.10
32650;DHT22;19055;51.064;3.712;2022-09-13T04:35:21;21.40;89.90
32650;DHT22;19055;51.064;3.712;2022-09-13T04:37:47;21.40;89.70
32650;DHT22;19055;51.064;3.712;2022-09-13T04:40:13;21.40;89.90
32650;DHT22;19055;51.064;3.712;2022-09-13T04:42:39;21.40;90.00
32650;DHT22;19055;51.064;3.712;2022-09-13T04:45:05;21.40;90.00
32650;DHT22;19055;51.064;3.712;2022-09-13T04:47:31;21.40;90.30
32650;DHT22;19055;51.064;3.712;2022-09-13T04:49:57;21.50;89.90
32650;DHT22;19055;51.064;3.712;2022-09-13T04:52:24;21.50;89.90
32650;DHT22;19055;51.064;3.712;2022-09-13T04:54:49;21.40;90.00
32650;DHT22;19055;51.064;3.712;2022-09-13T04:57:16;21.40;90.10
32650;DHT22;19055;51.064;3.712;2022-09-13T04:59:42;21.40;90.20
32650;DHT22;19055;51.064;3.712;2022-09-13T05:02:08;21.40;90.30
32650;DHT22;19055;51.064;3.712;2022-09-13T05:04:34;21.30;90.40
32650;DHT22;19055;51.064;3.712;2022-09-13T05:07:00;21.30;90.50
32650;DHT22;19055;51.064;3.712;2022-09-13T05:09:26;21.30;90.50
32650;DHT22;19055;51.064;3.712;2022-09-13T05:11:52;21.30;90.50
32650;DHT22;19055;51.064;3.712;2022-09-13T05:14:18;21.30;90.50
32650;DHT22;19055;51.064;3.712;2022-09-13T05:16:43;21.30;90.50
32650;DHT22;19055;51.064;3.712;2022-09-13T05:19:11;21.40;90.50
32650;DHT22;19055;51.064;3.712;2022-09-13T05:21:37;21.40;90.60
32650;DHT22;19055;51.064;3.712;2022-09-13T05:24:02;21.40;90.70
32650;DHT22;19055;51.064;3.712;2022-09-13T05:26:29;21.40;90.70
32650;DHT22;19055;51.064;3.712;2022-09-13T05:28:59;21.50;90.70
32650;DHT22;19055;51.064;3.712;2022-09-13T05:31:29;21.50;90.60
32650;DHT22;19055;51.064;3.712;2022-09-13T05:33:57;21.50;90.70
32650;DHT22;19055;51.064;3.712;2022-09-13T05:36:23;21.50;90.70
32650;DHT22;19055;51.064;3.712;2022-09-13T05:38:52;21.50;90.80
32650;DHT22;19055;51.064;3.712;2022-09-13T05:41:18;21.50;90.80
32650;DHT22;19055;51.064;3.712;2022-09-13T05:43:44;21.40;90.90
32650;DHT22;19055;51.064;3.712;2022-09-13T05:46:12;21.40;90.90
32650;DHT22;19055;51.064;3.712;2022-09-13T05:48:38;21.40;90.90
32650;DHT22;19055;51.064;3.712;2022-09-13T05:51:09;21.40;90.90
32650;DHT22;19055;51.064;3.712;2022-09-13T05:53:37;21.50;90.80
32650;DHT22;19055;51.064;3.712;2022-09-13T05:56:16;21.50;90.60
32650;DHT22;19055;51.064;3.712;2022-09-13T05:58:44;21.50;90.60
32650;DHT22;19055;51.064;3.712;2022-09-13T06:01:13;21.60;90.50
32650;DHT22;19055;51.064;3.712;2022-09-13T06:03:39;21.70;90.30
32650;DHT22;19055;51.064;3.712;2022-09-13T06:06:05;21.70;90.20
32650;DHT22;19055;51.064;3.712;2022-09-13T06:08:33;21.70;90.20
32650;DHT22;19055;51.064;3.712;2022-09-13T06:11:09;21.80;90.20
32650;DHT22;19055;51.064;3.712;2022-09-13T06:13:36;21.80;90.10
32650;DHT22;19055;51.064;3.712;2022-09-13T06:16:05;21.90;90.00
32650;DHT22;19055;51.064;3.712;2022-09-13T06:18:32;22.00;89.70
32650;DHT22;19055;51.064;3.712;2022-09-13T06:21:00;22.10;89.40
32650;DHT22;19055;51.064;3.712;2022-09-13T06:23:29;22.10;89.20
32650;DHT22;19055;51.064;3.712;2022-09-13T06:26:03;22.10;89.30
32650;DHT22;19055;51.064;3.712;2022-09-13T06:28:30;22.10;89.30
32650;DHT22;19055;51.064;3.712;2022-09-13T06:31:00;22.10;89.20
32650;DHT22;19055;51.064;3.712;2022-09-13T06:33:26;22.20;89.30
32650;DHT22;19055;51.064;3.712;2022-09-13T06:35:52;22.20;89.30
32650;DHT22;19055;51.064;3.712;2022-09-13T06:38:20;22.20;89.10
32650;DHT22;19055;51.064;3.712;2022-09-13T06:40:46;22.20;89.20
32650;DHT22;19055;51.064;3.712;2022-09-13T06:43:12;22.20;89.30
32650;DHT22;19055;51.064;3.712;2022-09-13T06:45:38;22.20;89.30
32650;DHT22;19055;51.064;3.712;2022-09-13T06:48:04;22.20;89.30
32650;DHT22;19055;51.064;3.712;2022-09-13T06:50:29;22.30;89.30
32650;DHT22;19055;51.064;3.712;2022-09-13T06:52:56;22.40;88.80
32650;DHT22;19055;51.064;3.712;2022-09-13T06:55:22;22.50;88.70
32650;DHT22;19055;51.064;3.712;2022-09-13T06:57:48;22.60;87.90
32650;DHT22;19055;51.064;3.712;2022-09-13T07:00:14;22.70;87.60
32650;DHT22;19055;51.064;3.712;2022-09-13T07:02:39;22.80;87.00
32650;DHT22;19055;51.064;3.712;2022-09-13T07:05:06;23.00;86.20
32650;DHT22;19055;51.064;3.712;2022-09-13T07:07:32;23.10;85.80
32650;DHT22;19055;51.064;3.712;2022-09-13T07:09:57;23.30;85.10
32650;DHT22;19055;51.064;3.712;2022-09-13T07:12:25;23.50;84.50
32650;DHT22;19055;51.064;3.712;2022-09-13T07:14:51;23.60;83.90
32650;DHT22;19055;51.064;3.712;2022-09-13T07:17:16;23.80;83.00
32650;DHT22;19055;51.064;3.712;2022-09-13T07:19:42;23.90;82.00
32650;DHT22;19055;51.064;3.712;2022-09-13T07:22:08;24.10;81.50
32650;DHT22;19055;51.064;3.712;2022-09-13T07:24:34;24.20;80.40
32650;DHT22;19055;51.064;3.712;2022-09-13T07:27:00;24.30;79.80
32650;DHT22;19055;51.064;3.712;2022-09-13T07:29:25;24.40;79.60
32650;DHT22;19055;51.064;3.712;2022-09-13T07:31:53;24.50;78.90
32650;DHT22;19055;51.064;3.712;2022-09-13T07:34:23;24.50;78.40
32650;DHT22;19055;51.064;3.712;2022-09-13T07:36:49;24.50;78.30
32650;DHT22;19055;51.064;3.712;2022-09-13T07:39:16;24.50;78.90
32650;DHT22;19055;51.064;3.712;2022-09-13T07:41:43;24.50;78.80
32650;DHT22;19055;51.064;3.712;2022-09-13T07:44:10;24.60;79.40
32650;DHT22;19055;51.064;3.712;2022-09-13T07:46:37;24.70;79.20
32650;DHT22;19055;51.064;3.712;2022-09-13T07:49:06;24.80;78.50
32650;DHT22;19055;51.064;3.712;2022-09-13T07:51:34;25.00;78.40
32650;DHT22;19055;51.064;3.712;2022-09-13T07:54:03;25.10;78.50
32650;DHT22;19055;51.064;3.712;2022-09-13T07:56:34;25.20;78.20
32650;DHT22;19055;51.064;3.712;2022-09-13T07:59:03;25.40;77.50
32650;DHT22;19055;51.064;3.712;2022-09-13T08:01:37;25.60;77.10
32650;DHT22;19055;51.064;3.712;2022-09-13T08:04:08;25.80;76.50
32650;DHT22;19055;51.064;3.712;2022-09-13T08:06:35;25.70;76.50
32650;DHT22;19055;51.064;3.712;2022-09-13T08:09:02;25.60;77.00
32650;DHT22;19055;51.064;3.712;2022-09-13T08:11:39;25.70;77.40
32650;DHT22;19055;51.064;3.712;2022-09-13T08:14:08;25.90;77.30
32650;DHT22;19055;51.064;3.712;2022-09-13T08:16:34;26.00;76.90
32650;DHT22;19055;51.064;3.712;2022-09-13T08:19:02;26.10;75.90
32650;DHT22;19055;51.064;3.712;2022-09-13T08:21:36;26.30;75.60
32650;DHT22;19055;51.064;3.712;2022-09-13T08:24:04;26.40;74.10
32650;DHT22;19055;51.064;3.712;2022-09-13T08:26:31;26.50;74.10
32650;DHT22;19055;51.064;3.712;2022-09-13T08:29:00;26.80;73.80
32650;DHT22;19055;51.064;3.712;2022-09-13T08:31:27;26.80;73.00
32650;DHT22;19055;51.064;3.712;2022-09-13T08:33:53;27.10;72.70
32650;DHT22;19055;51.064;3.712;2022-09-13T08:36:21;27.50;71.40
32650;DHT22;19055;51.064;3.712;2022-09-13T08:38:53;27.70;70.30
32650;DHT22;19055;51.064;3.712;2022-09-13T08:44:43;27.30;70.30
32650;DHT22;19055;51.064;3.712;2022-09-13T08:49:47;26.70;72.60
32650;DHT22;19055;51.064;3.712;2022-09-13T08:54:40;26.70;73.40
32650;DHT22;19055;51.064;3.712;2022-09-13T08:57:42;26.70;73.20
32650;DHT22;19055;51.064;3.712;2022-09-13T09:00:11;26.70;73.00
32650;DHT22;19055;51.064;3.712;2022-09-13T09:05:22;27.00;73.20
32650;DHT22;19055;51.064;3.712;2022-09-13T09:08:09;27.00;73.30
32650;DHT22;19055;51.064;3.712;2022-09-13T09:10:43;26.90;75.60
32650;DHT22;19055;51.064;3.712;2022-09-13T09:13:34;28.00;71.30
32650;DHT22;19055;51.064;3.712;2022-09-13T09:16:21;27.80;72.50
32650;DHT22;19055;51.064;3.712;2022-09-13T09:18:49;27.70;72.50
32650;DHT22;19055;51.064;3.712;2022-09-13T09:21:16;28.00;72.00
32650;DHT22;19055;51.064;3.712;2022-09-13T09:23:50;27.80;72.30
32650;DHT22;19055;51.064;3.712;2022-09-13T09:26:25;27.90;71.70
32650;DHT22;19055;51.064;3.712;2022-09-13T09:31:44;27.00;74.50
32650;DHT22;19055;51.064;3.712;2022-09-13T09:37:19;26.80;76.00
32650;DHT22;19055;51.064;3.712;2022-09-13T09:39:50;26.50;76.30
32650;DHT22;19055;51.064;3.712;2022-09-13T09:42:26;26.60;77.40
32650;DHT22;19055;51.064;3.712;2022-09-13T09:47:27;27.70;73.70
32650;DHT22;19055;51.064;3.712;2022-09-13T09:50:12;28.30;71.50
32650;DHT22;19055;51.064;3.712;2022-09-13T09:53:06;28.30;71.10
32650;DHT22;19055;51.064;3.712;2022-09-13T09:55:48;28.30;70.30
32650;DHT22;19055;51.064;3.712;2022-09-13T09:58:16;27.60;71.50
32650;DHT22;19055;51.064;3.712;2022-09-13T10:00:54;27.20;73.20
32650;DHT22;19055;51.064;3.712;2022-09-13T10:03:28;27.10;73.30
32650;DHT22;19055;51.064;3.712;2022-09-13T10:06:19;27.20;73.40
32650;DHT22;19055;51.064;3.712;2022-09-13T10:09:01;27.50;73.00
32650;DHT22;19055;51.064;3.712;2022-09-13T10:11:38;27.80;71.20
32650;DHT22;19055;51.064;3.712;2022-09-13T10:14:05;27.70;71.70
32650;DHT22;19055;51.064;3.712;2022-09-13T10:16:31;28.20;69.60
32650;DHT22;19055;51.064;3.712;2022-09-13T10:19:22;28.50;69.70
32650;DHT22;19055;51.064;3.712;2022-09-13T10:22:03;29.20;66.60
32650;DHT22;19055;51.064;3.712;2022-09-13T10:24:31;29.30;66.40
32650;DHT22;19055;51.064;3.712;2022-09-13T10:26:58;30.00;63.80
32650;DHT22;19055;51.064;3.712;2022-09-13T10:29:25;30.10;62.60
32650;DHT22;19055;51.064;3.712;2022-09-13T10:31:52;29.70;62.20
32650;DHT22;19055;51.064;3.712;2022-09-13T10:34:40;29.30;64.10
32650;DHT22;19055;51.064;3.712;2022-09-13T10:42:21;28.10;69.00
32650;DHT22;19055;51.064;3.712;2022-09-13T10:44:54;28.10;67.90
32650;DHT22;19055;51.064;3.712;2022-09-13T10:49:54;28.30;69.60
32650;DHT22;19055;51.064;3.712;2022-09-13T10:52:29;28.40;67.50
32650;DHT22;19055;51.064;3.712;2022-09-13T10:58:28;28.40;67.30
32650;DHT22;19055;51.064;3.712;2022-09-13T11:03:40;28.00;70.70
32650;DHT22;19055;51.064;3.712;2022-09-13T11:09:13;28.70;69.80
32650;DHT22;19055;51.064;3.712;2022-09-13T11:11:58;28.70;68.90
32650;DHT22;19055;51.064;3.712;2022-09-13T11:23:07;28.80;65.70
32650;DHT22;19055;51.064;3.712;2022-09-13T11:25:46;28.20;66.80
32650;DHT22;19055;51.064;3.712;2022-09-13T11:36:26;28.70;67.00
32650;DHT22;19055;51.064;3.712;2022-09-13T11:39:01;28.60;67.10
32650;DHT22;19055;51.064;3.712;2022-09-13T11:41:45;28.40;69.10
32650;DHT22;19055;51.064;3.712;2022-09-13T11:47:18;28.40;69.60
32650;DHT22;19055;51.064;3.712;2022-09-13T11:55:34;28.10;71.30
32650;DHT22;19055;51.064;3.712;2022-09-13T11:58:04;28.00;71.00
32650;DHT22;19055;51.064;3.712;2022-09-13T12:00:48;28.10;70.80
32650;DHT22;19055;51.064;3.712;2022-09-13T12:06:11;28.00;71.70
32650;DHT22;19055;51.064;3.712;2022-09-13T12:08:43;27.90;72.30
32650;DHT22;19055;51.064;3.712;2022-09-13T12:11:14;27.80;72.50
32650;DHT22;19055;51.064;3.712;2022-09-13T12:13:49;27.70;72.20
32650;DHT22;19055;51.064;3.712;2022-09-13T12:16:31;27.50;73.70
32650;DHT22;19055;51.064;3.712;2022-09-13T12:19:01;27.20;76.30
32650;DHT22;19055;51.064;3.712;2022-09-13T12:21:35;27.00;76.90
32650;DHT22;19055;51.064;3.712;2022-09-13T12:24:07;26.70;78.10
32650;DHT22;19055;51.064;3.712;2022-09-13T12:27:00;26.60;79.00
32650;DHT22;19055;51.064;3.712;2022-09-13T12:31:58;26.40;81.20
32650;DHT22;19055;51.064;3.712;2022-09-13T12:34:28;26.30;82.70
32650;DHT22;19055;51.064;3.712;2022-09-13T12:50:54;25.80;86.10
32650;DHT22;19055;51.064;3.712;2022-09-13T13:01:37;25.50;88.40
32650;DHT22;19055;51.064;3.712;2022-09-13T13:04:14;25.50;88.20
32650;DHT22;19055;51.064;3.712;2022-09-13T13:09:45;25.70;89.50
32650;DHT22;19055;51.064;3.712;2022-09-13T13:12:32;25.80;89.00
32650;DHT22;19055;51.064;3.712;2022-09-13T13:17:44;25.90;88.40
32650;DHT22;19055;51.064;3.712;2022-09-13T13:23:20;25.90;89.30
32650;DHT22;19055;51.064;3.712;2022-09-13T13:33:56;25.80;87.50
32650;DHT22;19055;51.064;3.712;2022-09-13T13:36:26;25.70;87.90
32650;DHT22;19055;51.064;3.712;2022-09-13T13:38:57;25.70;87.90
32650;DHT22;19055;51.064;3.712;2022-09-13T13:46:42;25.50;88.70
32650;DHT22;19055;51.064;3.712;2022-09-13T13:55:22;25.60;90.20
32650;DHT22;19055;51.064;3.712;2022-09-13T13:58:09;25.50;90.50
32650;DHT22;19055;51.064;3.712;2022-09-13T14:00:46;25.40;91.00
32650;DHT22;19055;51.064;3.712;2022-09-13T14:12:19;25.20;92.60
32650;DHT22;19055;51.064;3.712;2022-09-13T14:20:24;25.10;92.70
32650;DHT22;19055;51.064;3.712;2022-09-13T14:22:50;25.10;92.80
32650;DHT22;19055;51.064;3.712;2022-09-13T14:27:47;25.10;93.20
32650;DHT22;19055;51.064;3.712;2022-09-13T14:32:50;25.10;93.30
32650;DHT22;19055;51.064;3.712;2022-09-13T14:35:28;25.00;93.50
32650;DHT22;19055;51.064;3.712;2022-09-13T14:37:56;25.00;94.00
32650;DHT22;19055;51.064;3.712;2022-09-13T14:40:33;24.90;94.20
32650;DHT22;19055;51.064;3.712;2022-09-13T14:42:59;24.90;94.40
32650;DHT22;19055;51.064;3.712;2022-09-13T14:45:31;24.90;94.90
32650;DHT22;19055;51.064;3.712;2022-09-13T14:48:19;24.90;94.90
32650;DHT22;19055;51.064;3.712;2022-09-13T14:53:45;24.70;95.50
32650;DHT22;19055;51.064;3.712;2022-09-13T14:58:58;24.50;96.10
32650;DHT22;19055;51.064;3.712;2022-09-13T15:01:33;24.50;96.00
32650;DHT22;19055;51.064;3.712;2022-09-13T15:04:01;24.50;96.20
32650;DHT22;19055;51.064;3.712;2022-09-13T15:06:31;24.50;96.40
32650;DHT22;19055;51.064;3.712;2022-09-13T15:09:11;24.50;96.50
32650;DHT22;19055;51.064;3.712;2022-09-13T15:11:41;24.50;96.60
32650;DHT22;19055;51.064;3.712;2022-09-13T15:17:08;24.50;96.80
32650;DHT22;19055;51.064;3.712;2022-09-13T15:19:46;24.50;96.90
32650;DHT22;19055;51.064;3.712;2022-09-13T15:22:32;24.50;97.10
32650;DHT22;19055;51.064;3.712;2022-09-13T15:25:00;24.50;97.30
32650;DHT22;19055;51.064;3.712;2022-09-13T15:27:29;24.40;98.00
32650;DHT22;19055;51.064;3.712;2022-09-13T15:30:01;24.30;98.00
32650;DHT22;19055;51.064;3.712;2022-09-13T15:32:33;24.30;98.40
32650;DHT22;19055;51.064;3.712;2022-09-13T15:35:00;24.30;98.50
32650;DHT22;19055;51.064;3.712;2022-09-13T15:37:36;24.30;98.60
32650;DHT22;19055;51.064;3.712;2022-09-13T15:40:21;24.30;98.60
32650;DHT22;19055;51.064;3.712;2022-09-13T15:42:48;24.30;98.10
32650;DHT22;19055;51.064;3.712;2022-09-13T15:45:15;24.20;98.50
32650;DHT22;19055;51.064;3.712;2022-09-13T15:47:45;24.20;98.20
32650;DHT22;19055;51.064;3.712;2022-09-13T15:50:30;24.20;98.50
32650;DHT22;19055;51.064;3.712;2022-09-13T15:52:59;24.10;98.90
32650;DHT22;19055;51.064;3.712;2022-09-13T15:55:26;24.10;99.10
32650;DHT22;19055;51.064;3.712;2022-09-13T15:57:52;24.00;98.90
32650;DHT22;19055;51.064;3.712;2022-09-13T16:00:22;23.90;99.20
32650;DHT22;19055;51.064;3.712;2022-09-13T16:02:48;23.80;99.40
32650;DHT22;19055;51.064;3.712;2022-09-13T16:05:15;23.70;99.90
32650;DHT22;19055;51.064;3.712;2022-09-13T16:07:41;23.70;99.90
32650;DHT22;19055;51.064;3.712;2022-09-13T16:10:17;23.80;99.90
32650;DHT22;19055;51.064;3.712;2022-09-13T16:12:43;23.80;99.90
32650;DHT22;19055;51.064;3.712;2022-09-13T16:15:09;23.70;99.90
32650;DHT22;19055;51.064;3.712;2022-09-13T16:17:37;23.70;99.90
32650;DHT22;19055;51.064;3.712;2022-09-13T16:20:04;23.70;99.90
32650;DHT22;19055;51.064;3.712;2022-09-13T16:22:31;23.60;99.90
32650;DHT22;19055;51.064;3.712;2022-09-13T16:24:58;23.50;99.90
32650;DHT22;19055;51.064;3.712;2022-09-13T16:27:23;23.40;99.90
32650;DHT22;19055;51.064;3.712;2022-09-13T16:29:51;23.30;99.90
32650;DHT22;19055;51.064;3.712;2022-09-13T16:32:17;23.30;99.90
32650;DHT22;19055;51.064;3.712;2022-09-13T16:34:43;23.30;99.90
32650;DHT22;19055;51.064;3.712;2022-09-13T16:37:13;23.30;99.90
32650;DHT22;19055;51.064;3.712;2022-09-13T16:39:39;23.30;99.90
32650;DHT22;19055;51.064;3.712;2022-09-13T16:42:05;23.20;99.90
32650;DHT22;19055;51.064;3.712;2022-09-13T16:44:31;23.20;99.90
32650;DHT22;19055;51.064;3.712;2022-09-13T16:46:56;23.20;99.90
32650;DHT22;19055;51.064;3.712;2022-09-13T16:49:24;23.10;99.90
32650;DHT22;19055;51.064;3.712;2022-09-13T16:51:49;23.10;99.90
32650;DHT22;19055;51.064;3.712;2022-09-13T16:54:17;23.10;99.90
32650;DHT22;19055;51.064;3.712;2022-09-13T16:56:42;23.00;99.90
32650;DHT22;19055;51.064;3.712;2022-09-13T16:59:08;22.90;99.90
32650;DHT22;19055;51.064;3.712;2022-09-13T17:01:34;22.90;99.90
32650;DHT22;19055;51.064;3.712;2022-09-13T17:04:00;22.90;99.90
32650;DHT22;19055;51.064;3.712;2022-09-13T17:06:26;22.90;99.90
32650;DHT22;19055;51.064;3.712;2022-09-13T17:09:01;22.80;99.90
32650;DHT22;19055;51.064;3.712;2022-09-13T17:11:29;22.80;99.90
32650;DHT22;19055;51.064;3.712;2022-09-13T17:13:56;22.70;99.90
32650;DHT22;19055;51.064;3.712;2022-09-13T17:16:26;22.70;99.90
32650;DHT22;19055;51.064;3.712;2022-09-13T17:18:52;22.70;99.90
32650;DHT22;19055;51.064;3.712;2022-09-13T17:21:18;22.70;99.90
32650;DHT22;19055;51.064;3.712;2022-09-13T17:23:45;22.60;99.90
32650;DHT22;19055;51.064;3.712;2022-09-13T17:26:11;22.50;99.90
32650;DHT22;19055;51.064;3.712;2022-09-13T17:28:37;22.40;99.90
32650;DHT22;19055;51.064;3.712;2022-09-13T17:31:03;22.40;99.90
32650;DHT22;19055;51.064;3.712;2022-09-13T17:33:29;22.30;99.90
32650;DHT22;19055;51.064;3.712;2022-09-13T17:36:00;22.20;99.90
32650;DHT22;19055;51.064;3.712;2022-09-13T17:38:26;22.20;99.90
32650;DHT22;19055;51.064;3.712;2022-09-13T17:41:07;22.10;99.90
32650;DHT22;19055;51.064;3.712;2022-09-13T17:43:36;22.00;99.90
32650;DHT22;19055;51.064;3.712;2022-09-13T17:46:20;21.80;99.90
32650;DHT22;19055;51.064;3.712;2022-09-13T17:48:47;21.80;99.90
32650;DHT22;19055;51.064;3.712;2022-09-13T17:51:15;21.80;99.90
32650;DHT22;19055;51.064;3.712;2022-09-13T17:53:44;21.70;99.90
32650;DHT22;19055;51.064;3.712;2022-09-13T17:56:15;21.60;99.90
32650;DHT22;19055;51.064;3.712;2022-09-13T17:58:41;21.50;99.90
32650;DHT22;19055;51.064;3.712;2022-09-13T18:01:08;21.40;99.90
32650;DHT22;19055;51.064;3.712;2022-09-13T18:03:35;21.30;99.90
32650;DHT22;19055;51.064;3.712;2022-09-13T18:06:04;21.20;99.90
32650;DHT22;19055;51.064;3.712;2022-09-13T18:08:32;21.20;99.90
32650;DHT22;19055;51.064;3.712;2022-09-13T18:11:10;21.10;99.90
32650;DHT22;19055;51.064;3.712;2022-09-13T18:13:37;21.10;99.90
32650;DHT22;19055;51.064;3.712;2022-09-13T18:16:15;21.20;99.90
32650;DHT22;19055;51.064;3.712;2022-09-13T18:18:41;21.20;99.90
32650;DHT22;19055;51.064;3.712;2022-09-13T18:21:09;21.20;99.90
32650;DHT22;19055;51.064;3.712;2022-09-13T18:23:35;21.20;99.90
32650;DHT22;19055;51.064;3.712;2022-09-13T18:26:04;21.30;99.90
32650;DHT22;19055;51.064;3.712;2022-09-13T18:28:31;21.40;99.90
32650;DHT22;19055;51.064;3.712;2022-09-13T18:30:59;21.40;99.90
32650;DHT22;19055;51.064;3.712;2022-09-13T18:33:26;21.40;99.90
32650;DHT22;19055;51.064;3.712;2022-09-13T18:36:03;21.40;99.90
32650;DHT22;19055;51.064;3.712;2022-09-13T18:38:39;21.40;99.90
32650;DHT22;19055;51.064;3.712;2022-09-13T18:41:07;21.40;99.90
32650;DHT22;19055;51.064;3.712;2022-09-13T18:43:35;21.30;99.90
32650;DHT22;19055;51.064;3.712;2022-09-13T18:46:02;21.30;99.90
32650;DHT22;19055;51.064;3.712;2022-09-13T18:48:30;21.30;99.90
32650;DHT22;19055;51.064;3.712;2022-09-13T18:50:57;21.30;99.90
32650;DHT22;19055;51.064;3.712;2022-09-13T18:53:23;21.30;99.90
32650;DHT22;19055;51.064;3.712;2022-09-13T18:55:49;21.30;99.90
32650;DHT22;19055;51.064;3.712;2022-09-13T18:58:15;21.30;99.90
32650;DHT22;19055;51.064;3.712;2022-09-13T19:00:41;21.30;99.90
32650;DHT22;19055;51.064;3.712;2022-09-13T19:03:08;21.20;99.90
32650;DHT22;19055;51.064;3.712;2022-09-13T19:05:36;21.10;99.90
32650;DHT22;19055;51.064;3.712;2022-09-13T19:08:08;21.10;99.90